Time;durP1;ratioP1;P1;durP2;ratioP2;P2;SDS_P1;SDS_P2;PMS_P1;PMS_P2;Temp;Humidity;BMP_temperature;BMP_pressure;BME280_temperature;BME280_humidity;BME280_pressure;Samples;Min_cycle;Max_cycle;Signal;HPM_P1;HPM_P2
2021/09/30 00:01:30;;;;;;;9.20;6.32;;;;;;;;;;6276770;28;20086;-69
2021/09/30 00:04:32;;;;;;;8.90;6.55;;;;;;;;;;6285480;28;21066;-69
2021/09/30 00:07:33;;;;;;;8.18;6.63;;;;;;;;;;6280449;28;20119;-69
2021/09/30 00:10:36;;;;;;;7.63;6.28;;;;;;;;;;6279843;28;20048;-69
2021/09/30 00:13:44;;;;;;;8.23;6.10;;;;;;;;;;6289483;28;20055;-69
2021/09/30 00:16:59;;;;;;;9.07;6.93;;;;;;;;;;6276495;28;20044;-69
2021/09/30 00:33:41;;;;;;;11.18;6.60;;;;;;;;;;6282974;28;20424;-69
2021/09/30 00:40:17;;;;;;;9.25;6.28;;;;;;;;;;6284502;28;20120;-69
2021/09/30 00:46:50;;;;;;;130.93;77.03;;;;;;;;;;6271758;28;20048;-68
2021/09/30 00:50:06;;;;;;;35.83;20.42;;;;;;;;;;6279581;28;20125;-69
2021/09/30 00:53:31;;;;;;;24.27;13.57;;;;;;;;;;6272745;28;20091;-68
2021/09/30 01:51:57;;;;;;;9.32;5.80;;;;;;;;;;6275070;28;20049;-69
2021/09/30 02:20:41;;;;;;;12.30;6.85;;;;;;;;;;6283362;28;20036;-69
2021/09/30 02:24:00;;;;;;;9.27;5.78;;;;;;;;;;6286083;28;20059;-69
2021/09/30 02:27:19;;;;;;;8.93;6.00;;;;;;;;;;6266703;28;20135;-69
2021/09/30 03:00:33;;;;;;;6.05;4.20;;;;;;;;;;6286266;28;20082;-69
2021/09/30 03:03:36;;;;;;;8.70;4.28;;;;;;;;;;6290291;28;20178;-69
2021/09/30 03:06:40;;;;;;;7.30;3.97;;;;;;;;;;6289022;28;20053;-69
2021/09/30 03:09:44;;;;;;;;;;;;;;;;;;6294743;28;20055;-69
2021/09/30 03:12:46;;;;;;;4.95;3.90;;;;;;;;;;6289850;28;19977;-69
2021/09/30 03:15:53;;;;;;;7.13;3.58;;;;;;;;;;6289779;28;20127;-69
2021/09/30 03:18:57;;;;;;;4.80;3.30;;;;;;;;;;6289895;28;20170;-68
2021/09/30 03:22:13;;;;;;;5.30;4.00;;;;;;;;;;6299807;28;20122;-69
2021/09/30 03:25:15;;;;;;;5.20;3.58;;;;;;;;;;6291044;28;20063;-69
2021/09/30 03:28:18;;;;;;;5.00;3.50;;;;;;;;;;6290433;28;20137;-69
2021/09/30 03:31:20;;;;;;;6.22;3.47;;;;;;;;;;6289659;28;20044;-69
2021/09/30 03:34:22;;;;;;;8.55;4.40;;;;;;;;;;6290597;28;20495;-69
2021/09/30 03:37:25;;;;;;;10.73;6.03;;;;;;;;;;6284785;28;20488;-69
2021/09/30 03:40:26;;;;;;;12.63;8.00;;;;;;;;;;6295658;28;20044;-69
2021/09/30 03:43:28;;;;;;;16.15;8.85;;;;;;;;;;6293402;28;20454;-69
2021/09/30 03:46:32;;;;;;;16.30;8.80;;;;;;;;;;6280975;28;20064;-69
2021/09/30 03:49:34;;;;;;;;;;;;;;;;;;6286773;28;20052;-69
2021/09/30 03:52:46;;;;;;;13.90;9.60;;;;;;;;;;6277886;28;19924;-69
2021/09/30 03:56:10;;;;;;;12.02;8.55;;;;;;;;;;6282642;28;20056;-69
2021/09/30 03:59:21;;;;;;;17.13;8.95;;;;;;;;;;6289255;28;20067;-69
2021/09/30 04:02:22;;;;;;;17.88;10.05;;;;;;;;;;6275128;28;20041;-69
2021/09/30 04:05:24;;;;;;;15.85;10.93;;;;;;;;;;6280419;28;20044;-69
2021/09/30 04:08:27;;;;;;;17.52;10.68;;;;;;;;;;6285171;28;20148;-69
2021/09/30 04:11:28;;;;;;;17.20;10.67;;;;;;;;;;6280190;28;20076;-69
2021/09/30 04:14:30;;;;;;;17.02;11.20;;;;;;;;;;6288361;28;21005;-69
2021/09/30 04:17:32;;;;;;;19.60;11.63;;;;;;;;;;6271688;28;20044;-69
2021/09/30 04:20:34;;;;;;;17.20;11.55;;;;;;;;;;6275811;28;20453;-69
2021/09/30 04:23:37;;;;;;;17.55;10.95;;;;;;;;;;6283460;28;20126;-69
2021/09/30 04:26:38;;;;;;;21.53;12.40;;;;;;;;;;6280163;28;20094;-69
2021/09/30 04:29:40;;;;;;;19.73;12.43;;;;;;;;;;6286417;28;20036;-69
2021/09/30 04:32:42;;;;;;;21.65;13.10;;;;;;;;;;6273008;28;20454;-69
2021/09/30 04:35:44;;;;;;;18.48;12.55;;;;;;;;;;6277174;28;20041;-69
2021/09/30 04:38:47;;;;;;;20.98;13.68;;;;;;;;;;6283420;28;20124;-68
2021/09/30 04:41:48;;;;;;;23.58;16.00;;;;;;;;;;6272139;28;20048;-69
2021/09/30 04:44:50;;;;;;;25.58;15.90;;;;;;;;;;6281789;28;20127;-69
2021/09/30 04:47:52;;;;;;;24.85;16.65;;;;;;;;;;6265105;28;20174;-69
2021/09/30 04:50:53;;;;;;;24.73;16.92;;;;;;;;;;6275006;28;20136;-69
2021/09/30 04:53:56;;;;;;;24.77;14.95;;;;;;;;;;6283197;28;20060;-69
2021/09/30 04:56:58;;;;;;;21.90;15.97;;;;;;;;;;6279227;28;20093;-69
2021/09/30 04:59:59;;;;;;;23.75;15.48;;;;;;;;;;6298708;28;20038;-69
2021/09/30 05:03:01;;;;;;;24.45;16.35;;;;;;;;;;6276006;28;20086;-69
2021/09/30 05:06:02;;;;;;;24.40;15.45;;;;;;;;;;6279126;28;20068;-69
2021/09/30 05:09:05;;;;;;;25.65;15.80;;;;;;;;;;6285547;28;20127;-69
2021/09/30 05:12:11;;;;;;;25.75;16.13;;;;;;;;;;6284864;28;20044;-69
2021/09/30 05:15:12;;;;;;;26.33;17.00;;;;;;;;;;6288651;28;20450;-69
2021/09/30 05:18:14;;;;;;;27.70;17.52;;;;;;;;;;6277529;28;20117;-69
2021/09/30 05:21:16;;;;;;;25.63;16.88;;;;;;;;;;6279238;28;20135;-69
2021/09/30 05:24:19;;;;;;;22.45;16.20;;;;;;;;;;6287775;28;20088;-69
2021/09/30 05:27:20;;;;;;;22.67;16.07;;;;;;;;;;6281684;28;20135;-68
2021/09/30 05:30:23;;;;;;;23.92;15.98;;;;;;;;;;6287901;28;20454;-68
2021/09/30 05:33:25;;;;;;;23.60;17.00;;;;;;;;;;6280327;28;20044;-68
2021/09/30 05:36:26;;;;;;;22.23;17.10;;;;;;;;;;6283287;28;20055;-69
2021/09/30 05:39:29;;;;;;;25.02;16.80;;;;;;;;;;6287719;28;20634;-69
2021/09/30 05:42:31;;;;;;;24.57;16.07;;;;;;;;;;6285398;28;20056;-68
2021/09/30 05:45:39;;;;;;;20.67;15.23;;;;;;;;;;6284081;28;20553;-70
2021/09/30 05:48:41;;;;;;;23.63;15.20;;;;;;;;;;6257775;28;20051;-69
2021/09/30 05:51:43;;;;;;;26.33;16.58;;;;;;;;;;6254276;28;20045;-68
2021/09/30 05:54:47;;;;;;;22.42;15.27;;;;;;;;;;6262047;28;20091;-69
2021/09/30 05:57:48;;;;;;;22.75;14.98;;;;;;;;;;6257607;28;20051;-69
2021/09/30 06:01:01;;;;;;;22.38;15.52;;;;;;;;;;6255782;28;20259;-69
2021/09/30 06:10:45;;;;;;;22.73;15.20;;;;;;;;;;6224041;28;20569;-69
2021/09/30 06:13:51;;;;;;;21.40;14.23;;;;;;;;;;6261210;28;20052;-69
2021/09/30 06:16:54;;;;;;;21.02;14.75;;;;;;;;;;6244948;28;20041;-69
2021/09/30 06:19:56;;;;;;;24.00;15.07;;;;;;;;;;6259726;28;20044;-70
2021/09/30 06:22:57;;;;;;;24.15;14.10;;;;;;;;;;6252126;28;20041;-69
2021/09/30 06:26:00;;;;;;;20.77;14.25;;;;;;;;;;6258237;28;20135;-69
2021/09/30 06:29:02;;;;;;;21.23;13.55;;;;;;;;;;6264948;28;20188;-69
2021/09/30 06:32:04;;;;;;;21.48;13.57;;;;;;;;;;6251618;28;20099;-69
2021/09/30 06:35:06;;;;;;;23.48;13.93;;;;;;;;;;6258490;28;20438;-70
2021/09/30 06:38:08;;;;;;;18.50;13.68;;;;;;;;;;6252714;28;20250;-69
2021/09/30 06:41:11;;;;;;;21.83;12.65;;;;;;;;;;6253293;28;20071;-70
2021/09/30 06:44:12;;;;;;;17.63;12.00;;;;;;;;;;6261471;28;20153;-68
2021/09/30 06:47:15;;;;;;;19.88;12.40;;;;;;;;;;6262441;28;20132;-71
2021/09/30 06:50:17;;;;;;;21.73;12.15;;;;;;;;;;6281055;28;20084;-69
2021/09/30 06:53:18;;;;;;;21.17;13.20;;;;;;;;;;6279204;28;20044;-69
2021/09/30 06:56:22;;;;;;;18.10;11.70;;;;;;;;;;6279752;28;20227;-69
2021/09/30 06:59:32;;;;;;;18.02;12.25;;;;;;;;;;6286135;28;20063;-69
2021/09/30 07:02:37;;;;;;;18.63;12.15;;;;;;;;;;6270121;28;20052;-69
2021/09/30 07:05:40;;;;;;;16.17;11.95;;;;;;;;;;6276871;28;20996;-69
2021/09/30 07:08:43;;;;;;;;;;;;;;;;;;6268374;28;20055;-69
2021/09/30 07:11:45;;;;;;;;;;;;;;;;;;6270773;28;19921;-67
2021/09/30 07:14:47;;;;;;;;;;;;;;;;;;6276382;28;19932;-67
2021/09/30 07:17:48;;;;;;;;;;;;;;;;;;6271352;28;20342;-69
2021/09/30 07:20:53;;;;;;;;;;;;;;;;;;6271961;28;20261;-71
2021/09/30 07:23:54;;;;;;;;;;;;;;;;;;6287046;28;19977;-70
2021/09/30 07:26:57;;;;;;;;;;;;;;;;;;6279362;28;20011;-73
2021/09/30 07:29:58;;;;;;;;;;;;;;;;;;6285386;28;19929;-71
2021/09/30 07:33:00;;;;;;;;;;;;;;;;;;6276489;28;19926;-71
2021/09/30 07:36:01;;;;;;;;;;;;;;;;;;6271406;28;19921;-71
2021/09/30 07:39:03;;;;;;;;;;;;;;;;;;6287881;28;19928;-71
2021/09/30 07:42:05;;;;;;;;;;;;;;;;;;6280093;28;20284;-71
2021/09/30 07:45:07;;;;;;;;;;;;;;;;;;6285765;28;20438;-75
2021/09/30 07:48:08;;;;;;;;;;;;;;;;;;6278070;28;20014;-71
2021/09/30 07:51:10;;;;;;;;;;;;;;;;;;6277563;28;19962;-71
2021/09/30 07:54:12;;;;;;;;;;;;;;;;;;6282957;28;19982;-73
2021/09/30 07:57:14;;;;;;;;;;;;;;;;;;6282179;28;20491;-72
2021/09/30 08:00:16;;;;;;;;;;;;;;;;;;6284624;28;20287;-74
2021/09/30 08:03:17;;;;;;;;;;;;;;;;;;6276898;28;19925;-75
2021/09/30 08:06:19;;;;;;;;;;;;;;;;;;6279615;28;20581;-70
2021/09/30 08:09:21;;;;;;;;;;;;;;;;;;6283742;28;19924;-72
2021/09/30 08:12:25;;;;;;;;;;;;;;;;;;6282493;28;20011;-70
2021/09/30 08:15:26;;;;;;;;;;;;;;;;;;6275653;28;19921;-74
2021/09/30 08:18:28;;;;;;;;;;;;;;;;;;6279494;28;19929;-71
2021/09/30 08:21:29;;;;;;;;;;;;;;;;;;6280159;28;19920;-72
2021/09/30 08:24:31;;;;;;;;;;;;;;;;;;6284998;28;19924;-76
2021/09/30 08:27:33;;;;;;;;;;;;;;;;;;6286882;28;19920;-68
2021/09/30 08:30:35;;;;;;;;;;;;;;;;;;6282845;28;20371;-78
2021/09/30 08:33:40;;;;;;;;;;;;;;;;;;6285474;28;20062;-69
2021/09/30 08:36:41;;;;;;;;;;;;;;;;;;6281009;28;19920;-72
2021/09/30 08:39:42;;;;;;;;;;;;;;;;;;6286507;28;20396;-70
2021/09/30 08:42:47;;;;;;;;;;;;;;;;;;6284249;28;19929;-70
2021/09/30 08:45:49;;;;;;;10.23;5.68;;;;;;;;;;6279915;28;20304;-70
2021/09/30 08:48:51;;;;;;;8.07;5.90;;;;;;;;;;6283812;28;20147;-75
2021/09/30 08:51:52;;;;;;;7.90;5.75;;;;;;;;;;6277849;28;20065;-71
2021/09/30 08:54:54;;;;;;;5.93;5.18;;;;;;;;;;6286380;28;20072;-75
2021/09/30 08:58:02;;;;;;;7.53;5.65;;;;;;;;;;6279228;28;20066;-72
2021/09/30 09:01:06;;;;;;;9.45;5.57;;;;;;;;;;6277635;28;20104;-79
2021/09/30 09:04:17;;;;;;;7.13;5.35;;;;;;;;;;6283277;28;20032;-71
2021/09/30 09:07:23;;;;;;;7.32;5.82;;;;;;;;;;6279742;28;20048;-71
2021/09/30 09:10:26;;;;;;;5.70;5.10;;;;;;;;;;6282823;28;20052;-76
2021/09/30 09:13:29;;;;;;;6.88;5.32;;;;;;;;;;6282726;28;20067;-72
2021/09/30 09:16:31;;;;;;;;;;;;;;;;;;6274214;28;20145;-74
2021/09/30 09:19:35;;;;;;;8.20;5.68;;;;;;;;;;6285654;28;20023;-72
2021/09/30 09:22:37;;;;;;;9.02;5.78;;;;;;;;;;6278324;28;20105;-73
2021/09/30 09:25:39;;;;;;;8.07;6.40;;;;;;;;;;6280904;28;20051;-72
2021/09/30 09:29:03;;;;;;;8.32;5.72;;;;;;;;;;6287480;28;20186;-71
2021/09/30 09:32:06;;;;;;;10.35;6.28;;;;;;;;;;6278044;28;20047;-71
2021/09/30 09:35:08;;;;;;;7.30;5.75;;;;;;;;;;6282611;28;20045;-75
2021/09/30 09:38:12;;;;;;;9.10;5.75;;;;;;;;;;6277242;28;20049;-73
2021/09/30 09:41:19;;;;;;;7.60;5.60;;;;;;;;;;6280247;28;20182;-71
2021/09/30 09:44:22;;;;;;;12.18;6.78;;;;;;;;;;6295538;28;20040;-72
2021/09/30 09:47:24;;;;;;;;;;;;;;;;;;6280727;28;20145;-73
2021/09/30 09:50:27;;;;;;;6.50;5.80;;;;;;;;;;6280373;28;20023;-76
2021/09/30 09:53:29;;;;;;;9.70;5.35;;;;;;;;;;6293451;28;20529;-72
2021/09/30 09:56:31;;;;;;;6.80;5.00;;;;;;;;;;6279081;28;20044;-73
2021/09/30 09:59:40;;;;;;;9.05;5.70;;;;;;;;;;6296990;28;20174;-72
2021/09/30 10:02:42;;;;;;;7.30;5.03;;;;;;;;;;6277617;28;20044;-72
2021/09/30 10:05:44;;;;;;;6.15;4.72;;;;;;;;;;6285648;28;20045;-71
2021/09/30 10:08:46;;;;;;;7.90;5.13;;;;;;;;;;6296381;28;20360;-72
2021/09/30 10:11:48;;;;;;;7.78;5.15;;;;;;;;;;6280921;28;20060;-71
2021/09/30 10:14:50;;;;;;;8.30;4.82;;;;;;;;;;6292871;28;20637;-73
2021/09/30 10:17:52;;;;;;;;;;;;;;;;;;6272146;28;20074;-72
2021/09/30 10:20:54;;;;;;;5.00;3.70;;;;;;;;;;6283671;28;19936;-73
2021/09/30 10:23:58;;;;;;;3.10;2.50;;;;;;;;;;6292578;28;20672;-71
2021/09/30 10:27:02;;;;;;;3.75;2.70;;;;;;;;;;6284725;28;20114;-72
2021/09/30 10:30:05;;;;;;;3.38;2.15;;;;;;;;;;6293629;28;20072;-72
2021/09/30 10:33:08;;;;;;;3.03;2.17;;;;;;;;;;6275031;28;20517;-72
2021/09/30 10:36:29;;;;;;;5.43;2.58;;;;;;;;;;6281025;28;20053;-72
2021/09/30 10:39:31;;;;;;;5.57;3.00;;;;;;;;;;6282947;28;20044;-72
2021/09/30 10:42:43;;;;;;;6.10;3.30;;;;;;;;;;6286278;28;20113;-73
2021/09/30 10:45:46;;;;;;;4.32;3.10;;;;;;;;;;6283508;28;20089;-78
2021/09/30 10:48:50;;;;;;;4.60;3.65;;;;;;;;;;6283002;28;20055;-71
2021/09/30 10:52:12;;;;;;;4.50;3.38;;;;;;;;;;6282719;28;20051;-71
2021/09/30 10:55:32;;;;;;;5.10;3.67;;;;;;;;;;6283818;28;20052;-75
2021/09/30 10:58:33;;;;;;;3.97;3.47;;;;;;;;;;6289352;28;20059;-71
2021/09/30 11:02:02;;;;;;;7.83;3.87;;;;;;;;;;6272043;28;20162;-75
2021/09/30 11:05:08;;;;;;;4.50;3.90;;;;;;;;;;6282145;28;20076;-72
2021/09/30 11:08:19;;;;;;;4.63;3.83;;;;;;;;;;6283459;28;20148;-73
2021/09/30 11:11:25;;;;;;;7.22;4.30;;;;;;;;;;6283346;28;20074;-72
2021/09/30 11:14:27;;;;;;;3.90;3.20;;;;;;;;;;6289119;28;20044;-71
2021/09/30 11:17:36;;;;;;;4.77;3.77;;;;;;;;;;6279127;28;20040;-72
2021/09/30 11:20:38;;;;;;;6.13;3.60;;;;;;;;;;6278998;28;20067;-72
2021/09/30 11:23:50;;;;;;;4.20;3.38;;;;;;;;;;6283962;28;20447;-72
2021/09/30 11:27:08;;;;;;;3.95;3.55;;;;;;;;;;6279541;28;20052;-74
2021/09/30 11:30:22;;;;;;;4.75;3.75;;;;;;;;;;6287215;28;20679;-76
2021/09/30 11:33:25;;;;;;;4.22;3.50;;;;;;;;;;6279529;28;20044;-73
2021/09/30 11:36:29;;;;;;;5.95;3.47;;;;;;;;;;6275079;28;20058;-73
2021/09/30 11:39:31;;;;;;;8.15;3.38;;;;;;;;;;6285447;28;20145;-75
2021/09/30 11:42:39;;;;;;;5.67;2.87;;;;;;;;;;6278105;28;20044;-72
2021/09/30 11:45:41;;;;;;;4.57;3.20;;;;;;;;;;6265203;28;20059;-72
2021/09/30 11:48:56;;;;;;;5.37;3.80;;;;;;;;;;6256581;28;20459;-71
2021/09/30 11:51:59;;;;;;;4.07;3.42;;;;;;;;;;6252509;28;20135;-71
2021/09/30 11:55:11;;;;;;;4.72;3.42;;;;;;;;;;6262020;28;20052;-70
2021/09/30 11:58:16;;;;;;;;;;;;;;;;;;6259273;28;20540;-70
2021/09/30 12:01:32;;;;;;;5.70;3.58;;;;;;;;;;6253007;28;19924;-73
2021/09/30 12:04:39;;;;;;;4.30;3.88;;;;;;;;;;6255376;28;20061;-70
2021/09/30 12:07:42;;;;;;;3.72;3.42;;;;;;;;;;6251151;28;20467;-71
2021/09/30 12:10:44;;;;;;;7.97;3.42;;;;;;;;;;6257588;28;20045;-71
2021/09/30 12:13:57;;;;;;;4.15;3.75;;;;;;;;;;6261902;28;20121;-71
2021/09/30 12:17:00;;;;;;;3.67;3.30;;;;;;;;;;6253755;28;20183;-72
2021/09/30 12:20:06;;;;;;;4.00;3.40;;;;;;;;;;6259400;28;20098;-71
2021/09/30 12:23:07;;;;;;;5.45;3.67;;;;;;;;;;6251384;28;20146;-72
2021/09/30 12:26:09;;;;;;;4.35;3.47;;;;;;;;;;6258551;28;20408;-69
2021/09/30 12:29:12;;;;;;;4.88;3.30;;;;;;;;;;6256440;28;20192;-66
2021/09/30 12:32:17;;;;;;;6.45;3.53;;;;;;;;;;6250700;28;20191;-79
2021/09/30 12:35:23;;;;;;;5.65;3.63;;;;;;;;;;6252753;28;20619;-73
2021/09/30 12:38:25;;;;;;;6.18;3.42;;;;;;;;;;6257015;28;20570;-70
2021/09/30 12:41:27;;;;;;;4.57;3.20;;;;;;;;;;6260320;28;20073;-71
2021/09/30 12:44:32;;;;;;;6.10;3.40;;;;;;;;;;6260429;28;20491;-72
2021/09/30 12:47:40;;;;;;;5.45;2.53;;;;;;;;;;6267290;28;21091;-74
2021/09/30 12:50:47;;;;;;;4.32;3.03;;;;;;;;;;6275953;28;20051;-72
2021/09/30 12:53:49;;;;;;;3.40;2.88;;;;;;;;;;6282951;28;20512;-72
2021/09/30 12:56:51;;;;;;;3.65;3.35;;;;;;;;;;6280532;28;20045;-73
2021/09/30 13:00:13;;;;;;;4.20;3.38;;;;;;;;;;6286657;28;20129;-72
2021/09/30 13:03:16;;;;;;;4.10;3.00;;;;;;;;;;6278679;28;20182;-73
2021/09/30 13:06:24;;;;;;;4.35;2.90;;;;;;;;;;6272316;28;20044;-73
2021/09/30 13:09:28;;;;;;;3.85;3.10;;;;;;;;;;6278834;28;20183;-72
2021/09/30 13:12:30;;;;;;;4.72;3.22;;;;;;;;;;6271455;28;20045;-70
2021/09/30 13:15:37;;;;;;;5.55;3.42;;;;;;;;;;6279218;28;20121;-76
2021/09/30 13:18:48;;;;;;;5.97;3.70;;;;;;;;;;6281307;28;20040;-71
2021/09/30 13:22:05;;;;;;;3.92;3.50;;;;;;;;;;6281328;28;20148;-70
2021/09/30 13:25:09;;;;;;;5.38;3.20;;;;;;;;;;6280340;28;20064;-81
2021/09/30 13:28:10;;;;;;;6.60;3.65;;;;;;;;;;6284650;28;20049;-71
2021/09/30 13:31:12;;;;;;;6.07;4.38;;;;;;;;;;6281619;28;20131;-72
2021/09/30 13:34:13;;;;;;;5.20;3.77;;;;;;;;;;6289405;28;20059;-71
2021/09/30 13:37:16;;;;;;;8.80;3.97;;;;;;;;;;6282359;28;20490;-72
2021/09/30 13:40:19;;;;;;;9.63;3.95;;;;;;;;;;6289020;28;20079;-77
2021/09/30 13:43:20;;;;;;;6.43;3.97;;;;;;;;;;6289016;28;20063;-71
2021/09/30 13:46:22;;;;;;;4.93;3.75;;;;;;;;;;6289265;28;20147;-70
2021/09/30 13:49:24;;;;;;;7.07;3.97;;;;;;;;;;6287393;28;20421;-69
2021/09/30 13:52:28;;;;;;;5.28;3.80;;;;;;;;;;6282891;28;20186;-77
2021/09/30 13:55:32;;;;;;;17.20;4.30;;;;;;;;;;6285631;28;20045;-72
2021/09/30 13:58:35;;;;;;;10.10;4.85;;;;;;;;;;6299184;28;20139;-67
2021/09/30 14:01:36;;;;;;;4.85;4.35;;;;;;;;;;6287210;28;20048;-71
2021/09/30 14:04:38;;;;;;;5.90;4.85;;;;;;;;;;6285624;28;20446;-68
2021/09/30 14:07:41;;;;;;;5.30;4.60;;;;;;;;;;6277656;28;20455;-67
2021/09/30 14:10:43;;;;;;;6.82;5.40;;;;;;;;;;6279655;28;20055;-68
2021/09/30 14:13:45;;;;;;;6.57;4.47;;;;;;;;;;6286799;28;20068;-71
2021/09/30 14:16:49;;;;;;;13.88;4.60;;;;;;;;;;6276677;28;20398;-68
2021/09/30 14:19:50;;;;;;;7.63;5.10;;;;;;;;;;6283946;28;20599;-76
2021/09/30 14:22:53;;;;;;;7.50;4.77;;;;;;;;;;6273302;28;20112;-71
2021/09/30 14:25:58;;;;;;;7.93;4.80;;;;;;;;;;6275436;28;20480;-67
2021/09/30 14:28:59;;;;;;;6.63;4.70;;;;;;;;;;6288535;28;20062;-67
2021/09/30 14:32:01;;;;;;;7.33;4.90;;;;;;;;;;6280040;28;20105;-67
2021/09/30 14:35:04;;;;;;;7.50;5.97;;;;;;;;;;6273820;28;20520;-71
2021/09/30 14:38:06;;;;;;;;;;;;;;;;;;6273663;28;20131;-71
2021/09/30 14:41:08;;;;;;;6.82;5.13;;;;;;;;;;6272122;28;19976;-70
2021/09/30 14:44:10;;;;;;;8.10;5.60;;;;;;;;;;6282268;28;20081;-74
2021/09/30 14:47:11;;;;;;;6.33;5.43;;;;;;;;;;6273078;28;20413;-66
2021/09/30 14:50:13;;;;;;;6.35;5.45;;;;;;;;;;6276864;28;20060;-80
2021/09/30 14:53:16;;;;;;;6.65;5.85;;;;;;;;;;6280963;28;20128;-72
2021/09/30 14:56:18;;;;;;;7.53;5.28;;;;;;;;;;6281202;28;20508;-69
2021/09/30 14:59:20;;;;;;;7.93;6.35;;;;;;;;;;6283852;28;20052;-67
2021/09/30 15:02:21;;;;;;;6.93;5.07;;;;;;;;;;6270433;28;20101;-73
2021/09/30 15:05:23;;;;;;;6.97;5.85;;;;;;;;;;6281371;28;20688;-76
2021/09/30 15:08:26;;;;;;;8.43;5.63;;;;;;;;;;6278616;28;20089;-75
2021/09/30 15:11:28;;;;;;;9.52;5.57;;;;;;;;;;6274167;28;20404;-69
2021/09/30 15:14:29;;;;;;;8.23;6.10;;;;;;;;;;6283108;28;20431;-66
2021/09/30 15:17:45;;;;;;;10.52;5.97;;;;;;;;;;6275882;28;20139;-71
2021/09/30 15:24:07;;;;;;;12.32;6.60;;;;;;;;;;6285466;28;20068;-71
2021/09/30 15:27:09;;;;;;;9.27;6.20;;;;;;;;;;6274425;28;21921;-69
2021/09/30 15:30:11;;;;;;;9.88;6.63;;;;;;;;;;6277722;28;20167;-75
2021/09/30 15:33:12;;;;;;;7.47;6.20;;;;;;;;;;6276393;28;20044;-71
2021/09/30 15:36:14;;;;;;;8.25;5.80;;;;;;;;;;6274302;28;20056;-73
2021/09/30 15:39:17;;;;;;;8.38;5.60;;;;;;;;;;6290322;28;20532;-69
2021/09/30 15:42:23;;;;;;;7.13;5.50;;;;;;;;;;6276220;28;20126;-77
2021/09/30 15:45:25;;;;;;;6.95;5.20;;;;;;;;;;6281539;28;20106;-76
2021/09/30 15:48:26;;;;;;;6.90;5.47;;;;;;;;;;6273654;28;20072;-75
2021/09/30 15:51:28;;;;;;;7.00;5.10;;;;;;;;;;6272550;28;20231;-69
2021/09/30 15:54:32;;;;;;;8.70;5.43;;;;;;;;;;6284793;28;20560;-77
2021/09/30 15:57:35;;;;;;;6.97;4.60;;;;;;;;;;6274981;28;20926;-71
2021/09/30 16:00:36;;;;;;;6.40;4.90;;;;;;;;;;6273564;28;20045;-73
2021/09/30 16:03:38;;;;;;;7.80;4.97;;;;;;;;;;6276475;28;20938;-70
2021/09/30 16:06:40;;;;;;;5.45;4.80;;;;;;;;;;6274217;28;20040;-71
2021/09/30 16:09:43;;;;;;;7.05;5.25;;;;;;;;;;6279894;28;20166;-73
2021/09/30 16:12:46;;;;;;;7.25;5.03;;;;;;;;;;6276524;28;20052;-71
2021/09/30 16:15:47;;;;;;;9.30;5.97;;;;;;;;;;6271479;28;20725;-71
2021/09/30 16:18:49;;;;;;;8.13;5.18;;;;;;;;;;6282077;28;20145;-71
2021/09/30 16:21:51;;;;;;;14.35;6.50;;;;;;;;;;6284666;28;20143;-71
2021/09/30 16:24:54;;;;;;;8.80;5.77;;;;;;;;;;6288580;28;20131;-72
2021/09/30 16:27:56;;;;;;;9.32;4.85;;;;;;;;;;6278685;28;20127;-71
2021/09/30 16:30:58;;;;;;;71.38;51.83;;;;;;;;;;6282230;28;20504;-66
2021/09/30 16:33:59;;;;;;;93.30;71.03;;;;;;;;;;6284576;28;20199;-72
2021/09/30 16:37:01;;;;;;;76.15;53.90;;;;;;;;;;6278490;28;20597;-67
2021/09/30 16:40:05;;;;;;;8.75;6.82;;;;;;;;;;6301477;28;20105;-66
2021/09/30 16:43:07;;;;;;;5.47;4.40;;;;;;;;;;6279570;28;20040;-67
2021/09/30 16:46:09;;;;;;;4.63;3.47;;;;;;;;;;6282121;28;20062;-67
2021/09/30 16:49:10;;;;;;;9.13;3.72;;;;;;;;;;6283828;28;20045;-69
2021/09/30 16:52:12;;;;;;;6.78;2.65;;;;;;;;;;6279642;28;20051;-66
2021/09/30 16:55:16;;;;;;;5.25;3.05;;;;;;;;;;6285348;28;20051;-74
2021/09/30 16:58:17;;;;;;;6.07;2.90;;;;;;;;;;6290066;28;20048;-66
2021/09/30 17:01:19;;;;;;;8.48;2.70;;;;;;;;;;6286871;28;20097;-67
2021/09/30 17:04:21;;;;;;;2.70;2.15;;;;;;;;;;6295517;28;20131;-69
2021/09/30 17:07:23;;;;;;;5.60;2.25;;;;;;;;;;6299218;28;20055;-76
2021/09/30 17:10:26;;;;;;;3.65;2.38;;;;;;;;;;6291163;28;20133;-76
2021/09/30 17:13:28;;;;;;;5.68;2.65;;;;;;;;;;6298781;28;20059;-69
2021/09/30 17:16:29;;;;;;;6.45;2.38;;;;;;;;;;6278410;28;20167;-69
2021/09/30 17:19:33;;;;;;;10.00;2.67;;;;;;;;;;6293286;28;20137;-66
2021/09/30 17:22:34;;;;;;;;;;;;;;;;;;6281993;28;20113;-71
2021/09/30 17:25:37;;;;;;;5.85;3.80;;;;;;;;;;6284382;28;19924;-67
2021/09/30 17:28:39;;;;;;;7.88;4.90;;;;;;;;;;6296894;28;20048;-67
2021/09/30 17:31:41;;;;;;;7.35;4.57;;;;;;;;;;6284048;28;20097;-68
2021/09/30 17:34:42;;;;;;;11.23;5.05;;;;;;;;;;6291044;28;20052;-67
2021/09/30 17:37:44;;;;;;;8.95;5.18;;;;;;;;;;6287487;28;20139;-77
2021/09/30 17:40:48;;;;;;;9.45;5.25;;;;;;;;;;6284194;28;20209;-67
2021/09/30 17:43:49;;;;;;;9.15;5.50;;;;;;;;;;6302792;28;20254;-70
2021/09/30 17:46:51;;;;;;;12.65;6.00;;;;;;;;;;6293593;28;20135;-69
2021/09/30 17:49:54;;;;;;;13.25;4.78;;;;;;;;;;6299604;28;20049;-69
2021/09/30 17:52:55;;;;;;;13.32;6.93;;;;;;;;;;6305067;28;20047;-69
2021/09/30 17:55:58;;;;;;;8.55;5.53;;;;;;;;;;6306135;28;20226;-68
2021/09/30 17:59:00;;;;;;;7.85;5.38;;;;;;;;;;6314489;28;20044;-69
2021/09/30 18:02:02;;;;;;;8.90;4.75;;;;;;;;;;6296095;28;20266;-68
2021/09/30 18:05:04;;;;;;;9.65;5.40;;;;;;;;;;6284228;28;20135;-71
2021/09/30 18:08:06;;;;;;;9.67;4.63;;;;;;;;;;6288877;28;20048;-71
2021/09/30 18:11:09;;;;;;;10.90;5.40;;;;;;;;;;6290379;28;20041;-67
2021/09/30 18:14:11;;;;;;;11.80;5.35;;;;;;;;;;6293198;28;20036;-68
2021/09/30 18:17:12;;;;;;;10.45;4.53;;;;;;;;;;6283814;28;20499;-71
2021/09/30 18:20:14;;;;;;;8.27;4.70;;;;;;;;;;6293146;28;20077;-75
2021/09/30 18:23:17;;;;;;;18.38;5.20;;;;;;;;;;6288827;28;20074;-71
2021/09/30 18:26:21;;;;;;;125.57;81.43;;;;;;;;;;6288055;28;20083;-73
2021/09/30 18:29:23;;;;;;;355.02;232.65;;;;;;;;;;6295417;28;20044;-72
2021/09/30 18:32:25;;;;;;;140.55;89.72;;;;;;;;;;6285534;28;20049;-72
2021/09/30 18:35:26;;;;;;;44.13;27.38;;;;;;;;;;6288043;28;20797;-68
2021/09/30 18:38:28;;;;;;;55.63;32.95;;;;;;;;;;6290123;28;20102;-71
2021/09/30 18:41:31;;;;;;;16.55;9.00;;;;;;;;;;6293955;28;20040;-72
2021/09/30 18:44:33;;;;;;;8.25;5.50;;;;;;;;;;6297052;28;20560;-69
2021/09/30 18:47:35;;;;;;;6.83;4.40;;;;;;;;;;6281672;28;20127;-71
2021/09/30 18:50:37;;;;;;;10.93;4.68;;;;;;;;;;6259845;28;20135;-72
2021/09/30 18:53:38;;;;;;;9.00;5.55;;;;;;;;;;6278993;28;20675;-69
2021/09/30 18:56:42;;;;;;;11.07;5.75;;;;;;;;;;6264968;28;20067;-72
2021/09/30 18:59:43;;;;;;;;;;;;;;;;;;6273668;28;20706;-72
2021/09/30 19:02:45;;;;;;;16.67;6.30;;;;;;;;;;6242302;28;19925;-72
2021/09/30 19:05:46;;;;;;;15.85;6.80;;;;;;;;;;6255058;28;20117;-77
2021/09/30 19:08:48;;;;;;;13.07;5.88;;;;;;;;;;6266133;28;20431;-71
2021/09/30 19:11:51;;;;;;;9.27;6.38;;;;;;;;;;6259184;28;20505;-70
2021/09/30 19:14:52;;;;;;;9.20;6.03;;;;;;;;;;6268667;28;20543;-73
2021/09/30 19:17:56;;;;;;;8.65;6.35;;;;;;;;;;6256671;28;20049;-71
2021/09/30 19:20:57;;;;;;;12.00;5.65;;;;;;;;;;6258831;28;20124;-70
2021/09/30 19:23:59;;;;;;;10.13;7.15;;;;;;;;;;6267427;28;20097;-70
2021/09/30 19:27:02;;;;;;;8.52;6.28;;;;;;;;;;6280442;28;20114;-70
2021/09/30 19:30:05;;;;;;;14.15;7.32;;;;;;;;;;6279153;28;20143;-71
2021/09/30 19:33:07;;;;;;;15.05;7.05;;;;;;;;;;6257414;28;20128;-70
2021/09/30 19:36:09;;;;;;;12.13;6.70;;;;;;;;;;6264762;28;20471;-72
2021/09/30 19:39:12;;;;;;;18.58;8.85;;;;;;;;;;6279703;28;20500;-70
2021/09/30 19:42:15;;;;;;;19.90;7.85;;;;;;;;;;6270491;28;20052;-70
2021/09/30 19:45:17;;;;;;;12.05;7.18;;;;;;;;;;6262145;28;20041;-75
2021/09/30 19:48:20;;;;;;;15.60;7.63;;;;;;;;;;6285571;28;20527;-77
2021/09/30 19:51:21;;;;;;;16.77;8.45;;;;;;;;;;6289711;28;20045;-72
2021/09/30 19:54:23;;;;;;;11.25;8.05;;;;;;;;;;6294550;28;20051;-73
2021/09/30 19:57:26;;;;;;;15.43;8.57;;;;;;;;;;6293800;28;20063;-76
2021/09/30 20:00:27;;;;;;;11.85;8.63;;;;;;;;;;6293503;28;20119;-73
2021/09/30 20:03:29;;;;;;;12.07;8.00;;;;;;;;;;6287041;28;20067;-76
2021/09/30 20:06:30;;;;;;;13.77;9.13;;;;;;;;;;6280221;28;20634;-71
2021/09/30 20:09:32;;;;;;;19.23;9.98;;;;;;;;;;6294031;28;20060;-76
2021/09/30 20:12:35;;;;;;;14.05;8.82;;;;;;;;;;6288954;28;20202;-72
2021/09/30 20:15:37;;;;;;;13.88;8.95;;;;;;;;;;6286275;28;20519;-71
2021/09/30 20:18:38;;;;;;;20.13;11.30;;;;;;;;;;6288910;28;20178;-73
2021/09/30 20:21:40;;;;;;;16.10;11.65;;;;;;;;;;6280683;28;20048;-73
2021/09/30 20:24:42;;;;;;;19.20;10.18;;;;;;;;;;6293481;28;20044;-74
2021/09/30 20:27:45;;;;;;;14.10;9.63;;;;;;;;;;6290463;28;20123;-71
2021/09/30 20:30:46;;;;;;;14.48;9.57;;;;;;;;;;6283535;28;20129;-75
2021/09/30 20:33:48;;;;;;;16.75;10.35;;;;;;;;;;6287884;28;20598;-73
2021/09/30 20:36:49;;;;;;;17.85;10.18;;;;;;;;;;6282386;28;20041;-71
2021/09/30 20:39:52;;;;;;;15.98;11.05;;;;;;;;;;6287874;28;20091;-72
2021/09/30 20:42:55;;;;;;;15.70;9.55;;;;;;;;;;6281161;28;21285;-68
2021/09/30 20:45:56;;;;;;;18.65;9.95;;;;;;;;;;6280579;28;20155;-72
2021/09/30 20:48:58;;;;;;;15.25;9.48;;;;;;;;;;6284978;28;20097;-76